Time;durP1;ratioP1;P1;durP2;ratioP2;P2;SDS_P1;SDS_P2;PMS_P1;PMS_P2;Temp;Humidity;BMP_temperature;BMP_pressure;BME280_temperature;BME280_humidity;BME280_pressure;Samples;Min_cycle;Max_cycle;Signal;HPM_P1;HPM_P2
2022/03/20 00:03:36;;;;;;;71.68;33.17;;;;;;;;;;10351569;28;20105;-67
2022/03/20 00:08:38;;;;;;;71.05;31.85;;;;;;;;;;10351652;28;20054;-68
2022/03/20 00:13:42;;;;;;;73.00;31.27;;;;;;;;;;10350612;28;20360;-68
2022/03/20 00:18:45;;;;;;;72.88;32.40;;;;;;;;;;10354551;28;20084;-68
2022/03/20 00:23:48;;;;;;;68.72;34.83;;;;;;;;;;10382217;28;20065;-68
2022/03/20 00:28:51;;;;;;;68.03;33.53;;;;;;;;;;10386696;28;20058;-68
2022/03/20 00:33:54;;;;;;;72.60;34.70;;;;;;;;;;10354546;28;20246;-68
2022/03/20 00:38:57;;;;;;;65.32;32.38;;;;;;;;;;10377433;28;20054;-68
2022/03/20 00:43:59;;;;;;;66.57;32.17;;;;;;;;;;10349838;28;20086;-68
2022/03/20 00:49:03;;;;;;;70.47;33.13;;;;;;;;;;10350113;28;20053;-68
2022/03/20 00:54:05;;;;;;;69.28;33.83;;;;;;;;;;10351213;28;20051;-67
2022/03/20 00:59:08;;;;;;;66.95;33.28;;;;;;;;;;10349821;28;20058;-68
2022/03/20 01:04:13;;;;;;;72.57;34.60;;;;;;;;;;10350872;28;20069;-68
2022/03/20 01:09:15;;;;;;;76.60;36.65;;;;;;;;;;10350917;28;20092;-69
2022/03/20 01:14:18;;;;;;;77.28;34.95;;;;;;;;;;10349711;28;20253;-69
2022/03/20 01:19:23;;;;;;;71.60;34.42;;;;;;;;;;10379196;28;20049;-69
2022/03/20 01:24:28;;;;;;;79.53;35.38;;;;;;;;;;10398766;28;20364;-68
2022/03/20 01:29:30;;;;;;;70.03;31.43;;;;;;;;;;10387829;28;20054;-68
2022/03/20 01:34:34;;;;;;;78.50;35.45;;;;;;;;;;10357861;28;20058;-69
2022/03/20 01:39:36;;;;;;;71.75;35.38;;;;;;;;;;10358222;28;20046;-69
2022/03/20 01:44:39;;;;;;;73.13;35.10;;;;;;;;;;10356314;28;20057;-69
2022/03/20 01:49:42;;;;;;;70.60;32.83;;;;;;;;;;10368193;28;20050;-69
2022/03/20 01:54:47;;;;;;;74.15;34.95;;;;;;;;;;10357617;28;20253;-68
2022/03/20 01:59:50;;;;;;;70.18;34.55;;;;;;;;;;10356323;28;20046;-69
2022/03/20 02:04:53;;;;;;;80.20;35.60;;;;;;;;;;10360706;28;20218;-69
2022/03/20 02:09:57;;;;;;;74.45;35.15;;;;;;;;;;10356567;28;20046;-68
2022/03/20 02:15:01;;;;;;;76.75;32.92;;;;;;;;;;10377871;28;20049;-68
2022/03/20 02:20:08;;;;;;;82.15;36.03;;;;;;;;;;10397544;28;20328;-69
2022/03/20 02:25:14;;;;;;;79.85;37.08;;;;;;;;;;10404032;28;20284;-68
2022/03/20 02:30:18;;;;;;;70.82;33.97;;;;;;;;;;10358325;28;20065;-68
2022/03/20 02:35:21;;;;;;;82.78;36.78;;;;;;;;;;10357401;28;20058;-68
2022/03/20 02:40:24;;;;;;;73.20;34.50;;;;;;;;;;10354164;28;20077;-68
2022/03/20 02:45:29;;;;;;;74.78;35.10;;;;;;;;;;10355332;28;20049;-68
2022/03/20 02:50:34;;;;;;;65.55;33.65;;;;;;;;;;10353934;28;20043;-68
2022/03/20 02:55:39;;;;;;;79.05;35.83;;;;;;;;;;10355003;28;20042;-69
2022/03/20 03:00:42;;;;;;;79.18;35.78;;;;;;;;;;10395407;28;20065;-69
2022/03/20 03:05:46;;;;;;;72.88;33.85;;;;;;;;;;10394728;28;20280;-69
2022/03/20 03:10:59;;;;;;;68.53;33.72;;;;;;;;;;10364352;28;20058;-69
2022/03/20 03:16:06;;;;;;;67.32;34.50;;;;;;;;;;10389920;28;20045;-68
2022/03/20 03:21:11;;;;;;;70.35;34.65;;;;;;;;;;10407326;28;20046;-69
2022/03/20 03:26:16;;;;;;;70.18;35.40;;;;;;;;;;10359788;28;20360;-68
2022/03/20 03:31:18;;;;;;;75.82;31.60;;;;;;;;;;10357512;28;20057;-68
2022/03/20 03:36:21;;;;;;;71.55;32.63;;;;;;;;;;10352733;28;20042;-68
2022/03/20 03:41:24;;;;;;;69.43;32.47;;;;;;;;;;10375133;28;20078;-68
2022/03/20 03:46:27;;;;;;;69.97;34.15;;;;;;;;;;10369909;28;20353;-69
2022/03/20 03:51:29;;;;;;;76.88;35.88;;;;;;;;;;10356632;28;20047;-67
2022/03/20 03:56:33;;;;;;;74.15;34.50;;;;;;;;;;10351958;28;20046;-69
2022/03/20 04:01:36;;;;;;;75.97;35.17;;;;;;;;;;10349632;28;20050;-68
2022/03/20 04:06:38;;;;;;;76.00;35.10;;;;;;;;;;10364889;28;20272;-69
2022/03/20 04:11:42;;;;;;;62.65;35.20;;;;;;;;;;10392421;28;20344;-69
2022/03/20 04:16:45;;;;;;;76.30;36.42;;;;;;;;;;10367738;28;20254;-69
2022/03/20 04:21:48;;;;;;;69.30;33.38;;;;;;;;;;10349839;28;20046;-69
2022/03/20 04:26:54;;;;;;;67.45;33.65;;;;;;;;;;10350153;28;20093;-69
2022/03/20 04:31:56;;;;;;;68.60;34.15;;;;;;;;;;10351053;28;20057;-69
2022/03/20 04:36:58;;;;;;;69.97;34.33;;;;;;;;;;10349917;28;20042;-68
2022/03/20 04:42:03;;;;;;;66.70;32.80;;;;;;;;;;10350432;28;20034;-68
2022/03/20 04:58:28;;;;;;;63.93;33.87;;;;;;;;;;10349340;28;20109;-68
2022/03/20 05:03:11;;;;;;;62.17;31.23;;;;;;;;;;10370480;28;20053;-68
2022/03/20 05:08:13;;;;;;;56.70;30.55;;;;;;;;;;10358249;28;20344;-68
2022/03/20 05:13:20;;;;;;;65.70;33.40;;;;;;;;;;10386887;28;20282;-67
2022/03/20 05:18:23;;;;;;;59.25;31.77;;;;;;;;;;10401105;28;20050;-68
2022/03/20 05:23:26;;;;;;;62.05;33.00;;;;;;;;;;10364434;28;20046;-68
2022/03/20 05:28:30;;;;;;;57.53;32.47;;;;;;;;;;10356493;28;20129;-68
2022/03/20 05:33:33;;;;;;;55.07;33.47;;;;;;;;;;10389810;28;20050;-68
2022/03/20 05:38:35;;;;;;;55.15;28.83;;;;;;;;;;10386521;28;20054;-68
2022/03/20 05:43:38;;;;;;;61.30;34.13;;;;;;;;;;10354907;28;20345;-68
2022/03/20 05:48:41;;;;;;;60.65;33.45;;;;;;;;;;10355599;28;20356;-68
2022/03/20 05:53:43;;;;;;;52.67;31.30;;;;;;;;;;10355802;28;20180;-69
2022/03/20 05:58:47;;;;;;;50.95;32.58;;;;;;;;;;10370133;28;20054;-69
2022/03/20 06:03:49;;;;;;;48.25;29.98;;;;;;;;;;10352639;28;20061;-68
2022/03/20 06:08:52;;;;;;;40.38;28.45;;;;;;;;;;10355639;28;20350;-67
2022/03/20 06:13:56;;;;;;;43.65;28.95;;;;;;;;;;10361200;28;20241;-68
2022/03/20 06:18:59;;;;;;;39.22;26.13;;;;;;;;;;10379169;28;20069;-68
2022/03/20 06:24:02;;;;;;;38.13;26.85;;;;;;;;;;10360824;28;20038;-68
2022/03/20 06:29:07;;;;;;;37.63;26.55;;;;;;;;;;10362058;28;20054;-68
2022/03/20 06:34:09;;;;;;;37.63;27.75;;;;;;;;;;10344829;28;20065;-68
2022/03/20 06:39:11;;;;;;;42.58;28.92;;;;;;;;;;10376436;28;20076;-67
2022/03/20 06:44:16;;;;;;;40.45;28.20;;;;;;;;;;10389316;28;20049;-67
2022/03/20 06:49:18;;;;;;;37.60;27.65;;;;;;;;;;10390316;28;20069;-69
2022/03/20 06:54:20;;;;;;;34.88;24.83;;;;;;;;;;10367697;28;20049;-68
2022/03/20 06:59:24;;;;;;;35.58;23.70;;;;;;;;;;10354117;28;20062;-68
2022/03/20 07:04:26;;;;;;;33.10;24.98;;;;;;;;;;10353336;28;20065;-68
2022/03/20 07:09:29;;;;;;;33.42;23.48;;;;;;;;;;10313130;28;20325;-68
2022/03/20 07:14:33;;;;;;;28.73;21.67;;;;;;;;;;10339152;28;20113;-67
2022/03/20 07:19:37;;;;;;;32.20;21.40;;;;;;;;;;10352475;28;20074;-69
2022/03/20 07:24:41;;;;;;;26.65;20.40;;;;;;;;;;10351770;28;20062;-68
2022/03/20 07:29:45;;;;;;;24.63;18.45;;;;;;;;;;10378487;28;20046;-68
2022/03/20 07:34:47;;;;;;;25.08;18.35;;;;;;;;;;10362087;28;20117;-69
2022/03/20 07:39:53;;;;;;;24.13;17.90;;;;;;;;;;10351260;28;20284;-69
2022/03/20 07:44:56;;;;;;;25.27;18.10;;;;;;;;;;10352546;28;20149;-69
2022/03/20 07:50:00;;;;;;;22.52;17.48;;;;;;;;;;10388223;28;20290;-69
2022/03/20 07:55:04;;;;;;;22.83;17.20;;;;;;;;;;10361152;28;20182;-75
2022/03/20 08:00:10;;;;;;;20.73;16.33;;;;;;;;;;10357662;28;20052;-70
2022/03/20 08:05:12;;;;;;;19.80;15.05;;;;;;;;;;10402014;28;20049;-74
2022/03/20 08:10:15;;;;;;;18.25;13.95;;;;;;;;;;10376204;28;20057;-71
2022/03/20 08:15:19;;;;;;;15.75;12.68;;;;;;;;;;10347212;28;20042;-70
2022/03/20 08:20:22;;;;;;;14.07;11.90;;;;;;;;;;10351179;28;20085;-69
2022/03/20 08:25:26;;;;;;;14.90;11.20;;;;;;;;;;10349054;28;20097;-70
2022/03/20 08:30:30;;;;;;;17.95;11.82;;;;;;;;;;10348681;28;20061;-70
2022/03/20 08:35:33;;;;;;;16.42;9.90;;;;;;;;;;10353622;28;20054;-69
2022/03/20 08:40:35;;;;;;;11.32;8.80;;;;;;;;;;10346343;28;20054;-70
2022/03/20 08:45:41;;;;;;;11.70;8.85;;;;;;;;;;10349466;28;20058;-69
2022/03/20 08:50:44;;;;;;;14.23;10.13;;;;;;;;;;10361356;28;20053;-70
2022/03/20 08:55:47;;;;;;;14.52;10.20;;;;;;;;;;10348847;28;20237;-69
2022/03/20 09:00:50;;;;;;;19.13;10.10;;;;;;;;;;10348564;28;20057;-69
2022/03/20 09:05:53;;;;;;;28.80;15.27;;;;;;;;;;10348475;28;20061;-69
2022/03/20 09:10:57;;;;;;;15.60;11.30;;;;;;;;;;10347360;28;20056;-69
2022/03/20 09:21:21;;;;;;;15.43;9.02;;;;;;;;;;10349110;28;20096;-68
2022/03/20 09:26:24;;;;;;;13.45;10.35;;;;;;;;;;10347389;28;20062;-68
2022/03/20 09:31:31;;;;;;;13.38;9.27;;;;;;;;;;10349776;28;20054;-67
2022/03/20 09:36:33;;;;;;;16.13;11.05;;;;;;;;;;10358184;28;20040;-68
2022/03/20 09:41:41;;;;;;;23.02;11.90;;;;;;;;;;10351273;28;20309;-67
2022/03/20 09:46:45;;;;;;;14.73;9.65;;;;;;;;;;10356542;28;20093;-70
2022/03/20 09:51:47;;;;;;;16.15;12.05;;;;;;;;;;10354548;28;20069;-69
2022/03/20 09:56:53;;;;;;;17.27;11.43;;;;;;;;;;10353132;28;20042;-69
2022/03/20 10:02:02;;;;;;;16.63;11.80;;;;;;;;;;10337972;28;20337;-69
2022/03/20 10:07:20;;;;;;;14.65;10.13;;;;;;;;;;10367532;28;20093;-69
2022/03/20 10:12:31;;;;;;;17.95;10.40;;;;;;;;;;10354846;28;20046;-69
2022/03/20 10:17:35;;;;;;;17.88;11.85;;;;;;;;;;10366988;28;20053;-68
2022/03/20 10:22:37;;;;;;;26.48;12.43;;;;;;;;;;10352877;28;20054;-71
2022/03/20 10:27:56;;;;;;;22.48;12.68;;;;;;;;;;10341758;28;20065;-68
2022/03/20 10:33:13;;;;;;;19.65;12.75;;;;;;;;;;10355581;28;20338;-68
2022/03/20 10:38:36;;;;;;;20.80;13.23;;;;;;;;;;10365641;28;20126;-71
2022/03/20 10:43:42;;;;;;;21.85;12.75;;;;;;;;;;10313832;28;20054;-70
2022/03/20 10:48:49;;;;;;;27.75;12.85;;;;;;;;;;10354396;28;20046;-68
2022/03/20 10:54:00;;;;;;;18.05;11.98;;;;;;;;;;10365870;28;20045;-69
2022/03/20 10:59:13;;;;;;;20.17;11.85;;;;;;;;;;10353441;28;20066;-68
2022/03/20 11:04:18;;;;;;;19.77;12.15;;;;;;;;;;10336492;28;20047;-69
2022/03/20 11:09:22;;;;;;;25.98;13.15;;;;;;;;;;10312770;28;20234;-69
2022/03/20 11:14:26;;;;;;;17.35;11.73;;;;;;;;;;10312728;28;20313;-67
2022/03/20 11:19:33;;;;;;;21.70;11.80;;;;;;;;;;10350265;28;20281;-70
2022/03/20 11:24:37;;;;;;;16.30;11.25;;;;;;;;;;10361450;28;20062;-71
2022/03/20 11:29:44;;;;;;;19.30;11.93;;;;;;;;;;10352055;28;20249;-66
2022/03/20 11:34:49;;;;;;;21.98;13.90;;;;;;;;;;10366572;28;20218;-68
2022/03/20 11:40:11;;;;;;;20.70;12.13;;;;;;;;;;10350822;28;20054;-68
2022/03/20 11:45:18;;;;;;;18.77;11.90;;;;;;;;;;10350601;28;20062;-69
2022/03/20 11:50:23;;;;;;;18.75;12.40;;;;;;;;;;10351057;28;20050;-68
2022/03/20 11:55:50;;;;;;;19.77;12.65;;;;;;;;;;10364186;28;20046;-68
2022/03/20 12:01:02;;;;;;;18.42;11.73;;;;;;;;;;10351448;28;20057;-69
2022/03/20 12:06:50;;;;;;;20.08;12.40;;;;;;;;;;10350922;28;20062;-70
2022/03/20 12:12:07;;;;;;;16.02;11.32;;;;;;;;;;10351338;28;20186;-69
2022/03/20 12:17:10;;;;;;;18.27;11.90;;;;;;;;;;10362115;28;20050;-68
2022/03/20 12:22:18;;;;;;;20.58;13.48;;;;;;;;;;10350824;28;20118;-67
2022/03/20 12:27:45;;;;;;;20.73;12.70;;;;;;;;;;10351467;28;20069;-69
2022/03/20 12:32:52;;;;;;;21.92;12.82;;;;;;;;;;10363087;28;20053;-68
2022/03/20 12:37:57;;;;;;;26.52;12.95;;;;;;;;;;10347075;28;20070;-67
2022/03/20 12:43:02;;;;;;;25.70;12.93;;;;;;;;;;10348696;28;20061;-68
2022/03/20 12:48:06;;;;;;;24.33;15.43;;;;;;;;;;10349710;28;20182;-69
2022/03/20 12:53:15;;;;;;;22.95;12.85;;;;;;;;;;10348385;28;20050;-68
2022/03/20 12:58:19;;;;;;;17.05;12.98;;;;;;;;;;10362025;28;20332;-70
2022/03/20 13:03:21;;;;;;;20.80;12.70;;;;;;;;;;10350081;28;20057;-68
2022/03/20 13:08:26;;;;;;;21.40;13.60;;;;;;;;;;10343088;28;20065;-69
2022/03/20 13:13:30;;;;;;;;;;;;;;;;;;10363103;28;20042;-68
2022/03/20 13:18:35;;;;;;;25.00;13.63;;;;;;;;;;10357309;28;20110;-68
2022/03/20 13:23:38;;;;;;;18.98;12.27;;;;;;;;;;10357469;28;20054;-69
2022/03/20 13:28:43;;;;;;;17.75;11.63;;;;;;;;;;10357322;28;20348;-69
2022/03/20 13:33:52;;;;;;;23.10;12.93;;;;;;;;;;10354933;28;20224;-68
2022/03/20 13:38:57;;;;;;;19.42;11.88;;;;;;;;;;10365490;28;20454;-69
2022/03/20 13:44:03;;;;;;;21.60;12.93;;;;;;;;;;10391457;28;20042;-68
2022/03/20 13:49:07;;;;;;;23.25;13.95;;;;;;;;;;10406158;28;20085;-68
2022/03/20 13:54:14;;;;;;;20.48;12.18;;;;;;;;;;10354976;28;20054;-69
2022/03/20 13:59:18;;;;;;;26.75;17.17;;;;;;;;;;10355780;28;20054;-68
2022/03/20 14:04:22;;;;;;;19.13;12.65;;;;;;;;;;10355876;28;20105;-69
2022/03/20 14:09:34;;;;;;;23.38;13.20;;;;;;;;;;10354025;28;20073;-67
2022/03/20 14:14:44;;;;;;;21.20;13.48;;;;;;;;;;10354944;28;20237;-68
2022/03/20 14:19:46;;;;;;;20.77;13.88;;;;;;;;;;10353748;28;20057;-69
2022/03/20 14:24:54;;;;;;;17.45;12.07;;;;;;;;;;10353158;28;20349;-69
2022/03/20 14:40:46;;;;;;;17.17;12.55;;;;;;;;;;10382656;28;20080;-66
2022/03/20 14:45:50;;;;;;;19.75;12.07;;;;;;;;;;10390058;28;20046;-67
2022/03/20 14:50:52;;;;;;;24.95;13.32;;;;;;;;;;10353645;28;20046;-68
2022/03/20 14:55:55;;;;;;;19.88;13.32;;;;;;;;;;10352515;28;20038;-67
2022/03/20 15:00:58;;;;;;;17.85;12.65;;;;;;;;;;10352588;28;20148;-68
2022/03/20 15:06:02;;;;;;;19.67;12.98;;;;;;;;;;10352739;28;20077;-67
2022/03/20 15:16:26;;;;;;;24.02;13.95;;;;;;;;;;10348725;28;20341;-69
2022/03/20 15:21:29;;;;;;;18.35;12.70;;;;;;;;;;10313603;28;20053;-68
2022/03/20 15:26:34;;;;;;;18.25;10.77;;;;;;;;;;10329662;28;20077;-67
2022/03/20 15:31:36;;;;;;;17.37;12.40;;;;;;;;;;10365846;28;20057;-67
2022/03/20 15:36:39;;;;;;;15.57;11.57;;;;;;;;;;10351757;28;20050;-68
2022/03/20 15:41:45;;;;;;;26.13;15.68;;;;;;;;;;10353724;28;20341;-69
2022/03/20 15:46:48;;;;;;;20.17;13.23;;;;;;;;;;10351302;28;20074;-68
2022/03/20 15:51:51;;;;;;;20.90;13.95;;;;;;;;;;10313249;28;20046;-67
2022/03/20 15:56:55;;;;;;;25.13;14.93;;;;;;;;;;10332426;28;20058;-70
2022/03/20 16:01:57;;;;;;;24.40;15.75;;;;;;;;;;10351120;28;20053;-69
2022/03/20 16:06:59;;;;;;;27.90;14.90;;;;;;;;;;10350966;28;20057;-67
2022/03/20 16:12:04;;;;;;;31.08;16.92;;;;;;;;;;10352118;28;20054;-70
2022/03/20 16:17:07;;;;;;;33.03;17.10;;;;;;;;;;10349674;28;20057;-68
2022/03/20 16:22:09;;;;;;;30.27;17.45;;;;;;;;;;10349917;28;20093;-67
2022/03/20 16:32:33;;;;;;;25.25;14.05;;;;;;;;;;10349506;28;20062;-69
2022/03/20 16:37:36;;;;;;;23.42;13.88;;;;;;;;;;10351121;28;20257;-68
2022/03/20 16:42:40;;;;;;;26.33;14.32;;;;;;;;;;10348786;28;20066;-68
2022/03/20 16:47:42;;;;;;;21.13;12.52;;;;;;;;;;10352186;28;20050;-66
2022/03/20 16:52:46;;;;;;;25.60;14.15;;;;;;;;;;10363527;28;20046;-68
2022/03/20 16:57:49;;;;;;;84.53;30.73;;;;;;;;;;10364687;28;20059;-68
2022/03/20 17:02:52;;;;;;;43.83;18.67;;;;;;;;;;10362355;28;20057;-68
2022/03/20 17:07:54;;;;;;;31.30;17.25;;;;;;;;;;10362010;28;20161;-66
2022/03/20 17:12:59;;;;;;;29.63;16.45;;;;;;;;;;10361553;28;20345;-70
2022/03/20 17:18:02;;;;;;;36.28;18.17;;;;;;;;;;10364096;28;20050;-70
2022/03/20 17:23:05;;;;;;;40.83;20.13;;;;;;;;;;10363537;28;20050;-68
2022/03/20 17:28:10;;;;;;;49.85;23.13;;;;;;;;;;10362394;28;20070;-70
2022/03/20 17:33:12;;;;;;;67.00;22.00;;;;;;;;;;10363983;28;20084;-68
2022/03/20 17:38:15;;;;;;;53.28;21.70;;;;;;;;;;10363112;28;20050;-68
2022/03/20 17:43:19;;;;;;;72.15;27.70;;;;;;;;;;10361448;28;20237;-68
2022/03/20 17:48:27;;;;;;;61.20;26.95;;;;;;;;;;10363369;28;20038;-68
2022/03/20 17:53:30;;;;;;;54.65;26.77;;;;;;;;;;10375785;28;20057;-69
2022/03/20 17:58:34;;;;;;;39.83;20.98;;;;;;;;;;10362776;28;20281;-68
2022/03/20 18:08:56;;;;;;;53.65;25.60;;;;;;;;;;10357432;28;20050;-69
2022/03/20 18:14:00;;;;;;;49.10;22.08;;;;;;;;;;10355892;28;20222;-69
2022/03/20 18:19:04;;;;;;;64.97;29.13;;;;;;;;;;10374093;28;20038;-68
2022/03/20 18:24:07;;;;;;;58.17;26.33;;;;;;;;;;10356652;28;20368;-66
2022/03/20 18:29:12;;;;;;;51.83;25.75;;;;;;;;;;10356884;28;20058;-68
2022/03/20 18:34:15;;;;;;;58.03;26.65;;;;;;;;;;10355659;28;20073;-70
2022/03/20 18:39:21;;;;;;;50.47;22.80;;;;;;;;;;10357160;28;20042;-68
2022/03/20 18:44:24;;;;;;;51.97;25.73;;;;;;;;;;10369702;28;20046;-70
2022/03/20 18:49:27;;;;;;;70.05;30.10;;;;;;;;;;10354893;28;20176;-68
2022/03/20 18:54:30;;;;;;;53.70;26.50;;;;;;;;;;10355542;28;20058;-69
2022/03/20 18:59:34;;;;;;;55.72;29.20;;;;;;;;;;10356396;28;20245;-68
2022/03/20 19:04:37;;;;;;;63.58;30.33;;;;;;;;;;10352566;28;20050;-69
2022/03/20 19:09:40;;;;;;;64.07;29.80;;;;;;;;;;10356087;28;20060;-70
2022/03/20 19:14:45;;;;;;;62.15;30.20;;;;;;;;;;10352557;28;20317;-68
2022/03/20 19:19:47;;;;;;;61.97;28.63;;;;;;;;;;10356994;28;20038;-68
2022/03/20 19:24:49;;;;;;;66.78;29.88;;;;;;;;;;10354898;28;20059;-69
2022/03/20 19:29:54;;;;;;;61.20;27.73;;;;;;;;;;10353435;28;20070;-70
2022/03/20 19:40:17;;;;;;;83.05;36.30;;;;;;;;;;10367854;28;20357;-69
2022/03/20 19:45:21;;;;;;;82.63;40.75;;;;;;;;;;10353917;28;20069;-70
2022/03/20 19:50:24;;;;;;;62.92;27.70;;;;;;;;;;10353414;28;20058;-68
2022/03/20 19:55:26;;;;;;;75.30;34.47;;;;;;;;;;10351105;28;20065;-69
2022/03/20 20:00:31;;;;;;;79.50;33.75;;;;;;;;;;10362201;28;20333;-68
2022/03/20 20:05:33;;;;;;;80.40;34.88;;;;;;;;;;10355104;28;20248;-68
2022/03/20 20:10:36;;;;;;;79.38;33.85;;;;;;;;;;10342362;28;20058;-69
2022/03/20 20:15:40;;;;;;;80.82;34.92;;;;;;;;;;10350512;28;20054;-69
2022/03/20 20:20:42;;;;;;;75.32;34.97;;;;;;;;;;10371933;28;20061;-69
2022/03/20 20:25:45;;;;;;;89.63;36.97;;;;;;;;;;10362875;28;20057;-69
2022/03/20 20:30:49;;;;;;;68.68;31.50;;;;;;;;;;10381617;28;20065;-68
2022/03/20 20:35:52;;;;;;;82.35;38.10;;;;;;;;;;10387003;28;20042;-69
2022/03/20 20:40:54;;;;;;;78.13;34.13;;;;;;;;;;10351585;28;20237;-69
2022/03/20 20:45:58;;;;;;;74.50;34.35;;;;;;;;;;10351460;28;20096;-68
2022/03/20 20:51:01;;;;;;;74.10;33.00;;;;;;;;;;10350827;28;20061;-69
2022/03/20 20:56:04;;;;;;;76.43;34.05;;;;;;;;;;10349541;28;20108;-68
2022/03/20 21:01:08;;;;;;;75.90;35.05;;;;;;;;;;10355840;28;20086;-68
2022/03/20 21:06:10;;;;;;;73.53;34.63;;;;;;;;;;10358570;28;20073;-69
2022/03/20 21:11:12;;;;;;;71.18;33.10;;;;;;;;;;10353706;28;20066;-68
2022/03/20 21:16:17;;;;;;;79.28;34.33;;;;;;;;;;10311268;28;20065;-69
2022/03/20 21:21:20;;;;;;;81.40;38.50;;;;;;;;;;10362099;28;20061;-70
2022/03/20 21:26:22;;;;;;;98.03;41.13;;;;;;;;;;10386728;28;20325;-67
2022/03/20 21:31:27;;;;;;;103.47;42.78;;;;;;;;;;10356642;28;20066;-68
2022/03/20 21:36:29;;;;;;;67.93;34.27;;;;;;;;;;10354631;28;20042;-68
2022/03/20 21:41:31;;;;;;;70.30;32.13;;;;;;;;;;10356747;28;20046;-68
2022/03/20 21:46:35;;;;;;;66.90;31.05;;;;;;;;;;10357895;28;20229;-69
2022/03/20 21:51:37;;;;;;;72.80;32.15;;;;;;;;;;10356429;28;20054;-68
2022/03/20 21:56:40;;;;;;;76.35;33.40;;;;;;;;;;10384632;28;20053;-67
2022/03/20 22:01:43;;;;;;;73.07;33.95;;;;;;;;;;10384590;28;20049;-69
2022/03/20 22:06:47;;;;;;;81.38;35.45;;;;;;;;;;10386525;28;20376;-67
2022/03/20 22:11:49;;;;;;;92.47;38.83;;;;;;;;;;10356647;28;20349;-68
2022/03/20 22:16:53;;;;;;;61.33;31.27;;;;;;;;;;10388353;28;20053;-69
2022/03/20 22:21:56;;;;;;;70.88;33.28;;;;;;;;;;10355932;28;20061;-70
2022/03/20 22:26:59;;;;;;;70.63;34.08;;;;;;;;;;10357523;28;20042;-69
2022/03/20 22:32:02;;;;;;;70.22;35.08;;;;;;;;;;10385255;28;20042;-67
2022/03/20 22:42:25;;;;;;;83.88;35.55;;;;;;;;;;10371433;28;20046;-66
2022/03/20 22:47:28;;;;;;;75.68;34.22;;;;;;;;;;10356812;28;20042;-68
2022/03/20 22:52:31;;;;;;;80.03;36.53;;;;;;;;;;10361158;28;20068;-69
2022/03/20 22:57:34;;;;;;;82.32;37.63;;;;;;;;;;10364056;28;20070;-69
2022/03/20 23:02:37;;;;;;;169.70;75.47;;;;;;;;;;10356071;28;20093;-68
2022/03/20 23:07:40;;;;;;;95.03;42.45;;;;;;;;;;10355387;28;20057;-68
2022/03/20 23:12:43;;;;;;;69.18;33.35;;;;;;;;;;10355959;28;20046;-68
2022/03/20 23:17:48;;;;;;;98.38;39.53;;;;;;;;;;10367246;28;20070;-68
2022/03/20 23:22:51;;;;;;;90.80;39.97;;;;;;;;;;10369000;28;20353;-68
2022/03/20 23:27:54;;;;;;;85.20;37.33;;;;;;;;;;10353411;28;20054;-69
2022/03/20 23:33:06;;;;;;;79.18;36.88;;;;;;;;;;10386217;28;20053;-68
2022/03/20 23:38:09;;;;;;;89.43;37.88;;;;;;;;;;10409010;28;20354;-68
2022/03/20 23:43:19;;;;;;;78.00;35.75;;;;;;;;;;10389267;28;20046;-68
2022/03/20 23:48:22;;;;;;;78.93;37.05;;;;;;;;;;10369128;28;20081;-68
2022/03/20 23:53:25;;;;;;;251.23;88.03;;;;;;;;;;10353185;28;20100;-68
2022/03/20 23:58:27;;;;;;;82.53;37.45;;;;;;;;;;10355082;28;20054;-68
